Terminal Aerodrome Forecast
Issued by NWS

Home | Current Version | Previous Version | Text Only | Print | Product List | Glossary Off
Versions: 1 2 3 4 5 6 7 8 9 10 11 12 13

000
FTUS43 KGRB 151125
TAFRHI
TAF
KRHI 151125Z 1512/1612 24003KT P6SM SKC
      TEMPO 1512/1515 3SM BR
     FM160900 24004KT 5SM BR SCT250=

USA.gov is the U.S. government's official web portal to all federal, state and local government web resources and services.